Time;durP1;ratioP1;P1;durP2;ratioP2;P2;SDS_P1;SDS_P2;PMS_P1;PMS_P2;Temp;Humidity;BMP_temperature;BMP_pressure;BME280_temperature;BME280_humidity;BME280_pressure;Samples;Min_cycle;Max_cycle;Signal;HPM_P1;HPM_P2
2023/05/03 00:02:23;;;;;;;7.35;3.28;;;8.30;99.90;;;;;;5098424;28;20036;-76
2023/05/03 00:04:52;;;;;;;4.97;3.20;;;8.30;99.90;;;;;;5065177;27;20043;-78
2023/05/03 00:07:18;;;;;;;6.65;2.75;;;8.30;99.90;;;;;;5090149;28;20066;-77
2023/05/03 00:09:43;;;;;;;3.97;2.42;;;8.40;99.90;;;;;;5070763;28;20426;-76
2023/05/03 00:12:09;;;;;;;4.05;3.10;;;8.40;99.90;;;;;;5107426;28;20058;-81
2023/05/03 00:14:34;;;;;;;5.28;3.05;;;8.50;99.90;;;;;;5104764;28;20085;-78
2023/05/03 00:17:00;;;;;;;3.88;2.50;;;8.40;99.90;;;;;;5083605;28;21933;-76
2023/05/03 00:19:28;;;;;;;6.55;3.40;;;8.50;99.90;;;;;;5119441;27;20043;-81
2023/05/03 00:21:54;;;;;;;3.92;2.83;;;8.50;99.90;;;;;;5082152;28;20039;-76
2023/05/03 00:24:20;;;;;;;3.67;2.55;;;8.50;99.90;;;;;;5086955;28;20038;-75
2023/05/03 00:26:45;;;;;;;7.18;3.15;;;8.50;99.90;;;;;;5117064;27;20527;-76
2023/05/03 00:29:11;;;;;;;5.18;3.33;;;8.50;99.90;;;;;;5072230;28;20027;-77
2023/05/03 00:31:37;;;;;;;3.65;2.65;;;8.40;99.90;;;;;;5087771;27;20158;-75
2023/05/03 00:34:02;;;;;;;4.03;2.50;;;8.50;99.90;;;;;;5072005;28;20055;-82
2023/05/03 00:36:29;;;;;;;4.82;3.00;;;8.50;99.90;;;;;;5089225;28;20047;-80
2023/05/03 00:38:55;;;;;;;6.68;2.85;;;8.50;99.90;;;;;;5063927;28;20097;-78
2023/05/03 00:41:23;;;;;;;8.20;3.40;;;8.40;99.90;;;;;;5098848;28;20043;-77
2023/05/03 00:43:49;;;;;;;4.53;2.90;;;8.50;99.90;;;;;;5101332;28;22116;-78
2023/05/03 00:46:14;;;;;;;3.60;2.50;;;8.50;99.90;;;;;;5084472;28;20085;-78
2023/05/03 00:48:40;;;;;;;4.80;2.60;;;8.60;99.90;;;;;;5085420;28;20104;-76
2023/05/03 00:51:07;;;;;;;4.00;2.67;;;8.50;99.90;;;;;;5085309;28;20113;-77
2023/05/03 00:53:33;;;;;;;5.13;2.53;;;8.50;99.90;;;;;;5088906;28;20027;-81
2023/05/03 00:56:00;;;;;;;3.55;2.53;;;8.50;99.90;;;;;;5067684;28;20116;-77
2023/05/03 00:58:26;;;;;;;4.28;2.50;;;8.50;99.90;;;;;;5089769;28;20062;-78
2023/05/03 01:00:52;;;;;;;6.55;2.63;;;8.50;99.90;;;;;;5081664;28;20039;-79
2023/05/03 01:03:17;;;;;;;2.72;2.30;;;8.60;99.90;;;;;;5098306;28;20050;-78
2023/05/03 01:06:11;;;;;;;7.45;2.53;;;8.50;99.90;;;;;;5104125;28;20044;-78
2023/05/03 01:09:00;;;;;;;3.28;2.15;;;8.60;99.90;;;;;;5082951;28;20059;-76
2023/05/03 01:11:43;;;;;;;4.22;2.58;;;8.60;99.90;;;;;;5082582;28;20131;-77
2023/05/03 01:14:24;;;;;;;4.82;2.28;;;8.60;99.90;;;;;;5083404;28;20096;-78
2023/05/03 01:16:55;;;;;;;5.32;2.67;;;8.60;99.90;;;;;;5123191;27;20051;-78
2023/05/03 01:19:37;;;;;;;5.72;2.35;;;8.50;99.90;;;;;;5107242;28;20094;-78
2023/05/03 01:22:40;;;;;;;4.15;2.47;;;8.60;99.90;;;;;;5089363;28;20119;-76
2023/05/03 01:25:11;;;;;;;2.83;2.47;;;8.50;99.90;;;;;;5096752;28;20556;-78
2023/05/03 01:27:38;;;;;;;4.80;2.28;;;8.60;99.90;;;;;;5089753;28;20043;-78
2023/05/03 01:30:05;;;;;;;5.13;2.20;;;8.50;99.90;;;;;;5072930;28;20043;-77
2023/05/03 01:33:12;;;;;;;3.15;2.25;;;8.70;99.90;;;;;;5082106;28;20100;-77
2023/05/03 01:35:53;;;;;;;4.13;2.50;;;8.50;99.90;;;;;;5120954;27;20512;-76
2023/05/03 01:38:20;;;;;;;3.10;2.28;;;8.50;99.90;;;;;;5089815;28;20380;-77
2023/05/03 01:40:51;;;;;;;4.47;2.20;;;8.40;99.90;;;;;;5102787;28;20035;-78
2023/05/03 01:43:18;;;;;;;6.18;2.33;;;8.50;99.90;;;;;;5071379;28;20340;-77
2023/05/03 01:45:45;;;;;;;3.13;2.33;;;8.40;99.90;;;;;;5124810;27;20040;-76
2023/05/03 01:48:14;;;;;;;4.57;2.15;;;8.40;99.90;;;;;;5103332;28;20114;-80
2023/05/03 01:50:40;;;;;;;3.60;2.35;;;8.40;99.90;;;;;;5084684;28;20406;-77
2023/05/03 01:53:06;;;;;;;2.42;2.10;;;8.40;99.90;;;;;;5089684;28;20068;-78
2023/05/03 01:55:31;;;;;;;3.50;2.22;;;8.50;99.90;;;;;;5085007;28;20166;-76
2023/05/03 01:57:57;;;;;;;7.50;2.40;;;8.50;99.90;;;;;;5074475;28;20036;-78
2023/05/03 02:00:23;;;;;;;2.63;2.05;;;8.40;99.90;;;;;;5071623;28;20177;-78
2023/05/03 02:02:49;;;;;;;2.88;1.70;;;8.50;99.90;;;;;;5100803;28;20039;-78
2023/05/03 02:05:14;;;;;;;3.63;1.95;;;8.50;99.90;;;;;;5088033;28;20496;-76
2023/05/03 02:07:40;;;;;;;2.33;2.13;;;8.60;99.90;;;;;;5119291;27;20044;-78
2023/05/03 02:10:07;;;;;;;3.20;2.05;;;8.70;99.90;;;;;;5109175;28;20373;-75
2023/05/03 02:12:32;;;;;;;3.20;1.90;;;8.50;99.90;;;;;;5066353;28;20121;-76
2023/05/03 02:14:58;;;;;;;2.58;1.60;;;8.60;99.90;;;;;;5071658;28;20380;-78
2023/05/03 02:17:25;;;;;;;2.20;2.00;;;8.60;99.90;;;;;;5087838;28;20039;-77
2023/05/03 02:19:54;;;;;;;3.03;2.10;;;8.50;99.90;;;;;;5108089;28;20459;-76
2023/05/03 02:22:20;;;;;;;3.35;1.80;;;8.50;99.90;;;;;;5072099;27;20422;-78
2023/05/03 02:24:46;;;;;;;3.60;1.95;;;8.50;99.90;;;;;;5070486;28;20143;-78
2023/05/03 02:27:11;;;;;;;5.38;1.88;;;8.70;99.90;;;;;;5084243;28;20145;-77
2023/05/03 02:29:37;;;;;;;5.18;2.22;;;8.70;99.90;;;;;;5059458;28;20044;-76
2023/05/03 02:32:04;;;;;;;2.83;1.70;;;8.70;99.90;;;;;;5053472;28;20770;-79
2023/05/03 02:34:31;;;;;;;2.20;1.77;;;8.60;99.90;;;;;;5088613;28;20044;-77
2023/05/03 02:36:56;;;;;;;4.40;2.00;;;8.70;99.90;;;;;;5100955;28;20046;-78
2023/05/03 02:39:22;;;;;;;4.13;2.00;;;8.80;99.90;;;;;;5084399;28;20043;-77
2023/05/03 02:41:48;;;;;;;3.67;2.53;;;8.80;99.90;;;;;;5050673;28;20048;-76
2023/05/03 02:44:14;;;;;;;3.85;2.00;;;8.80;99.90;;;;;;5104000;28;20058;-77
2023/05/03 02:46:40;;;;;;;3.45;2.00;;;8.80;99.90;;;;;;5098414;28;20096;-76
2023/05/03 02:49:07;;;;;;;2.85;2.20;;;8.60;99.90;;;;;;5088319;28;20039;-77
2023/05/03 02:51:33;;;;;;;4.85;2.08;;;8.80;99.90;;;;;;5100949;28;20196;-80
2023/05/03 02:53:58;;;;;;;4.00;2.20;;;8.80;99.90;;;;;;5084679;28;20817;-76
2023/05/03 02:56:27;;;;;;;4.03;2.70;;;8.70;99.90;;;;;;5085423;28;20044;-77
2023/05/03 02:58:53;;;;;;;2.78;2.20;;;8.80;99.90;;;;;;5102173;28;20493;-76
2023/05/03 03:01:19;;;;;;;3.75;2.17;;;8.70;99.90;;;;;;5081257;28;20437;-78
2023/05/03 03:03:45;;;;;;;5.00;2.60;;;8.80;99.90;;;;;;5102428;28;20468;-80
2023/05/03 03:06:11;;;;;;;4.57;2.25;;;8.60;99.90;;;;;;5090948;27;20058;-79
2023/05/03 03:08:37;;;;;;;6.20;2.40;;;8.70;99.90;;;;;;5082996;28;20039;-77
2023/05/03 03:11:04;;;;;;;3.97;2.63;;;8.80;99.90;;;;;;5116696;27;20036;-77
2023/05/03 03:13:29;;;;;;;5.60;2.38;;;8.70;99.90;;;;;;5101389;28;20418;-77
2023/05/03 03:15:55;;;;;;;4.30;2.50;;;8.70;99.90;;;;;;5102222;28;20055;-75
2023/05/03 03:18:21;;;;;;;2.67;2.20;;;8.50;99.90;;;;;;5069432;28;20036;-78
2023/05/03 03:20:46;;;;;;;3.90;2.38;;;8.50;99.90;;;;;;5104686;28;20028;-78
2023/05/03 03:23:12;;;;;;;2.95;2.47;;;8.60;99.90;;;;;;5088235;28;20043;-76
2023/05/03 03:25:37;;;;;;;4.03;2.75;;;8.50;99.90;;;;;;5083669;28;20483;-77
2023/05/03 03:28:03;;;;;;;4.25;2.50;;;8.60;99.90;;;;;;5102075;27;20070;-76
2023/05/03 03:30:29;;;;;;;6.20;2.83;;;8.30;99.90;;;;;;5086028;28;20036;-76
2023/05/03 03:32:55;;;;;;;3.80;2.20;;;8.40;99.90;;;;;;5087441;28;20044;-77
2023/05/03 03:35:21;;;;;;;3.42;2.70;;;8.30;99.90;;;;;;5068044;28;20051;-77
2023/05/03 03:37:47;;;;;;;3.10;2.30;;;8.30;99.90;;;;;;5099215;28;20058;-78
2023/05/03 03:40:12;;;;;;;7.20;2.65;;;8.40;99.90;;;;;;5099735;28;20457;-76
2023/05/03 03:42:39;;;;;;;3.58;2.58;;;8.30;99.90;;;;;;5103198;27;20364;-75
2023/05/03 03:45:05;;;;;;;3.33;2.35;;;8.30;99.90;;;;;;5120373;27;20050;-76
2023/05/03 03:47:31;;;;;;;4.43;2.40;;;8.20;99.90;;;;;;5054388;27;20058;-76
2023/05/03 03:49:59;;;;;;;4.50;2.58;;;8.10;99.90;;;;;;5080941;28;20035;-81
2023/05/03 03:52:25;;;;;;;2.70;2.45;;;8.20;99.90;;;;;;5076582;28;20031;-78
2023/05/03 03:54:51;;;;;;;5.75;2.63;;;8.20;99.90;;;;;;5084341;28;20086;-78
2023/05/03 03:57:17;;;;;;;3.67;2.30;;;8.20;99.90;;;;;;5105822;28;20043;-75
2023/05/03 03:59:43;;;;;;;3.08;2.70;;;8.10;99.90;;;;;;5067320;28;20053;-76
2023/05/03 04:02:09;;;;;;;5.30;2.83;;;8.30;99.90;;;;;;5102504;27;20045;-76
2023/05/03 04:04:35;;;;;;;3.47;2.80;;;8.10;99.90;;;;;;5087397;28;20043;-77
2023/05/03 04:07:01;;;;;;;4.13;3.20;;;8.10;99.90;;;;;;5086965;28;20039;-78
2023/05/03 04:09:26;;;;;;;3.45;2.80;;;8.30;99.90;;;;;;5128212;27;20388;-77
2023/05/03 04:11:52;;;;;;;3.80;2.80;;;8.20;99.90;;;;;;5081625;28;20345;-76
2023/05/03 04:14:18;;;;;;;6.88;2.83;;;8.30;99.90;;;;;;5106788;28;20181;-75
2023/05/03 04:16:43;;;;;;;4.88;2.97;;;8.10;99.90;;;;;;5096878;28;20101;-76
2023/05/03 04:19:09;;;;;;;5.93;3.22;;;8.30;99.90;;;;;;5070701;27;20031;-80
2023/05/03 04:21:35;;;;;;;5.35;3.00;;;8.30;99.90;;;;;;5088850;28;20040;-76
2023/05/03 04:24:05;;;;;;;4.05;2.80;;;8.40;99.90;;;;;;5105410;28;20036;-80
2023/05/03 04:26:31;;;;;;;4.80;2.78;;;8.30;99.90;;;;;;5069880;28;20074;-76
2023/05/03 04:28:58;;;;;;;5.10;2.85;;;8.40;99.90;;;;;;5083070;28;20042;-75
2023/05/03 04:31:24;;;;;;;5.47;3.17;;;8.40;99.90;;;;;;5069089;28;20379;-79
2023/05/03 04:33:50;;;;;;;4.88;3.58;;;8.40;99.90;;;;;;5084031;28;20051;-74
2023/05/03 04:36:15;;;;;;;3.20;2.90;;;8.50;99.90;;;;;;5104413;27;20058;-76
2023/05/03 04:38:42;;;;;;;4.97;2.83;;;8.60;99.90;;;;;;5084230;27;20044;-77
2023/05/03 04:41:08;;;;;;;2.92;2.63;;;8.50;99.90;;;;;;5097621;28;20422;-77
2023/05/03 04:43:35;;;;;;;4.03;2.80;;;8.60;99.90;;;;;;5078921;27;20506;-76
2023/05/03 04:46:02;;;;;;;4.43;2.92;;;8.60;99.90;;;;;;5078424;28;20455;-76
2023/05/03 04:48:28;;;;;;;4.78;2.20;;;8.70;99.90;;;;;;5046872;28;20039;-77
2023/05/03 04:50:54;;;;;;;4.68;2.22;;;8.80;99.90;;;;;;5096788;28;20058;-77
2023/05/03 04:53:20;;;;;;;4.90;2.20;;;8.80;99.90;;;;;;5063607;27;20042;-75
2023/05/03 04:55:46;;;;;;;3.10;2.38;;;8.70;99.90;;;;;;5117983;27;20039;-77
2023/05/03 04:58:12;;;;;;;5.53;2.30;;;8.90;99.90;;;;;;5086756;28;20039;-77
2023/05/03 05:00:40;;;;;;;4.55;2.00;;;8.80;99.90;;;;;;5081511;28;20075;-78
2023/05/03 05:03:06;;;;;;;2.33;2.13;;;8.80;99.90;;;;;;5066679;28;20158;-79
2023/05/03 05:05:32;;;;;;;2.50;2.00;;;8.80;99.90;;;;;;5079409;28;20070;-77
2023/05/03 05:07:58;;;;;;;3.95;2.10;;;8.90;99.90;;;;;;5054849;28;20093;-76
2023/05/03 05:10:24;;;;;;;4.15;2.08;;;9.00;99.90;;;;;;5101034;28;20621;-76
2023/05/03 05:12:51;;;;;;;4.00;1.95;;;8.90;99.90;;;;;;5089711;28;20067;-77
2023/05/03 05:15:16;;;;;;;2.38;1.60;;;8.90;99.90;;;;;;5070052;27;20072;-74
2023/05/03 05:17:42;;;;;;;3.17;1.80;;;9.00;99.90;;;;;;5119370;27;20184;-76
2023/05/03 05:20:12;;;;;;;4.55;1.88;;;9.10;99.90;;;;;;5080478;28;20641;-77
2023/05/03 05:22:40;;;;;;;3.42;2.30;;;9.10;99.90;;;;;;5120429;27;20062;-77
2023/05/03 05:25:07;;;;;;;2.30;1.92;;;9.00;99.90;;;;;;5102824;27;20035;-80
2023/05/03 05:27:36;;;;;;;3.58;2.42;;;9.20;99.90;;;;;;5085406;28;20043;-75
2023/05/03 05:30:03;;;;;;;5.18;2.15;;;9.20;99.90;;;;;;5124291;27;20031;-78
2023/05/03 05:32:29;;;;;;;4.43;2.40;;;9.10;99.90;;;;;;5050790;28;20059;-75
2023/05/03 05:34:55;;;;;;;6.20;2.42;;;9.20;99.90;;;;;;5096877;28;20042;-75
2023/05/03 05:37:22;;;;;;;4.55;2.30;;;9.20;99.90;;;;;;5108598;28;20040;-76
2023/05/03 05:39:48;;;;;;;3.88;2.40;;;9.30;99.90;;;;;;5091108;28;20039;-75
2023/05/03 05:42:13;;;;;;;3.13;2.17;;;9.20;99.90;;;;;;5094847;28;20048;-76
2023/05/03 05:44:39;;;;;;;3.30;2.13;;;9.20;99.90;;;;;;5086142;28;20036;-77
2023/05/03 05:47:05;;;;;;;2.55;2.08;;;9.40;99.90;;;;;;5074524;28;20047;-78
2023/05/03 05:49:31;;;;;;;2.90;2.33;;;9.50;99.90;;;;;;5091004;28;20047;-74
2023/05/03 05:52:02;;;;;;;6.93;2.30;;;9.40;99.90;;;;;;5100760;28;20032;-77
2023/05/03 05:54:28;;;;;;;4.32;2.00;;;9.40;99.90;;;;;;5055723;28;20028;-78
2023/05/03 05:56:54;;;;;;;4.35;2.10;;;9.60;99.90;;;;;;5054204;28;20040;-77
2023/05/03 05:59:20;;;;;;;2.47;1.92;;;9.60;99.90;;;;;;5089788;28;20046;-76
2023/05/03 06:01:46;;;;;;;2.45;1.88;;;9.60;99.90;;;;;;5083898;28;20040;-77
2023/05/03 06:04:12;;;;;;;6.03;2.00;;;9.50;99.90;;;;;;5047473;28;20051;-76
2023/05/03 06:06:38;;;;;;;5.63;1.90;;;9.70;99.90;;;;;;5071532;28;20044;-77
2023/05/03 06:09:04;;;;;;;4.53;2.10;;;9.70;99.90;;;;;;5090851;28;20046;-75
2023/05/03 06:11:30;;;;;;;2.90;1.95;;;9.80;99.90;;;;;;5053998;28;20545;-76
2023/05/03 06:13:56;;;;;;;4.35;1.88;;;9.90;99.90;;;;;;5084905;28;20039;-75
2023/05/03 06:16:23;;;;;;;3.42;1.70;;;10.00;99.90;;;;;;5073444;28;20503;-76
2023/05/03 06:18:49;;;;;;;5.65;1.70;;;10.00;99.90;;;;;;5073824;28;20047;-78
2023/05/03 06:21:15;;;;;;;3.28;1.48;;;10.10;99.90;;;;;;5105753;28;20089;-77
2023/05/03 06:23:41;;;;;;;1.88;1.40;;;10.00;99.90;;;;;;5108117;28;20042;-79
2023/05/03 06:26:07;;;;;;;1.85;1.10;;;10.20;99.90;;;;;;5121668;27;20043;-77
2023/05/03 06:28:34;;;;;;;2.10;1.40;;;10.40;99.90;;;;;;5089903;28;20040;-78
2023/05/03 06:31:00;;;;;;;1.52;1.10;;;10.30;99.90;;;;;;5121046;27;20085;-77
2023/05/03 06:33:26;;;;;;;3.70;1.10;;;10.40;99.90;;;;;;5105949;28;20135;-77
2023/05/03 06:35:51;;;;;;;2.17;1.20;;;10.40;99.90;;;;;;5106593;28;20051;-74
2023/05/03 06:38:17;;;;;;;3.35;1.42;;;10.40;99.90;;;;;;5103945;28;20072;-78
2023/05/03 06:40:46;;;;;;;2.75;1.30;;;10.50;99.90;;;;;;5087504;28;20597;-74
2023/05/03 06:43:15;;;;;;;3.63;1.30;;;10.50;99.90;;;;;;5090981;28;20118;-76
2023/05/03 06:45:41;;;;;;;2.60;1.10;;;10.70;99.90;;;;;;5073666;28;20392;-75
2023/05/03 06:48:08;;;;;;;2.35;1.20;;;10.60;99.90;;;;;;5082978;28;20063;-75
2023/05/03 06:50:34;;;;;;;2.22;1.00;;;10.80;99.90;;;;;;5073520;28;20027;-76
2023/05/03 06:53:00;;;;;;;3.03;1.60;;;10.80;99.90;;;;;;5087284;28;20039;-76
2023/05/03 06:55:26;;;;;;;1.40;1.05;;;11.00;99.90;;;;;;5072523;28;20126;-77
2023/05/03 06:57:52;;;;;;;1.63;1.20;;;11.30;99.90;;;;;;5106089;28;20037;-76
2023/05/03 07:00:20;;;;;;;3.10;1.20;;;11.00;99.90;;;;;;5087178;28;20894;-77
2023/05/03 07:02:46;;;;;;;2.45;1.10;;;11.50;99.90;;;;;;5096935;28;20054;-75
2023/05/03 07:05:12;;;;;;;4.43;0.82;;;11.50;99.90;;;;;;5090342;28;20439;-75
2023/05/03 07:07:40;;;;;;;2.28;1.10;;;11.50;99.90;;;;;;5073658;28;20066;-78
2023/05/03 07:10:06;;;;;;;1.88;1.10;;;11.60;99.90;;;;;;5086743;28;20039;-76
2023/05/03 07:12:32;;;;;;;3.47;1.00;;;11.60;99.90;;;;;;5071917;28;20116;-77
2023/05/03 07:14:58;;;;;;;2.45;0.90;;;11.50;99.90;;;;;;5073848;28;20251;-74
2023/05/03 07:17:24;;;;;;;2.15;1.27;;;11.50;99.90;;;;;;5073130;28;20514;-76
2023/05/03 07:19:50;;;;;;;1.95;1.20;;;11.70;99.90;;;;;;5086280;28;20392;-80
2023/05/03 07:22:17;;;;;;;3.72;1.42;;;11.40;99.90;;;;;;5085988;28;20044;-78
2023/05/03 07:24:43;;;;;;;1.05;0.95;;;11.50;99.90;;;;;;5087687;28;20035;-75
2023/05/03 07:27:46;;;;;;;3.58;1.20;;;11.30;99.90;;;;;;5101614;28;20123;-74
2023/05/03 07:30:12;;;;;;;2.80;1.33;;;11.60;97.50;;;;;;5072157;28;20033;-78
2023/05/03 07:32:38;;;;;;;3.33;1.50;;;11.70;99.90;;;;;;5086496;28;20040;-78
2023/05/03 07:35:04;;;;;;;2.65;1.00;;;11.50;99.90;;;;;;5100961;28;20050;-78
2023/05/03 07:37:30;;;;;;;2.42;1.20;;;11.50;99.90;;;;;;5057002;28;20676;-75
2023/05/03 07:39:56;;;;;;;4.80;1.83;;;11.80;99.90;;;;;;5104779;28;20075;-78
2023/05/03 07:42:21;;;;;;;2.53;1.30;;;11.80;94.70;;;;;;5090026;27;20051;-76
2023/05/03 07:44:47;;;;;;;4.18;1.40;;;11.50;99.90;;;;;;5084695;28;20052;-78
2023/05/03 07:47:13;;;;;;;2.58;2.00;;;11.60;99.90;;;;;;5099592;28;20048;-78
2023/05/03 07:49:38;;;;;;;3.20;2.67;;;11.60;99.90;;;;;;5112275;28;20051;-77
2023/05/03 07:52:04;;;;;;;1.92;1.45;;;11.70;92.10;;;;;;5099301;28;20169;-77
2023/05/03 07:54:30;;;;;;;8.48;1.85;;;11.50;96.20;;;;;;5077167;28;20032;-80
2023/05/03 07:56:56;;;;;;;4.68;1.30;;;11.50;99.40;;;;;;5058492;28;20075;-81
2023/05/03 07:59:21;;;;;;;1.95;1.10;;;11.80;91.50;;;;;;5060346;28;20039;-80
2023/05/03 08:01:47;;;;;;;3.10;1.10;;;11.50;94.90;;;;;;5118041;27;20691;-80
2023/05/03 08:04:13;;;;;;;4.45;2.50;;;11.70;97.70;;;;;;5073509;28;20051;-80
2023/05/03 08:06:39;;;;;;;4.55;2.15;;;12.00;86.90;;;;;;5091404;28;20128;-77
2023/05/03 08:09:04;;;;;;;2.45;1.50;;;11.90;92.70;;;;;;5075005;28;20081;-77
2023/05/03 08:11:30;;;;;;;2.65;1.13;;;11.70;79.50;;;;;;5091271;28;20133;-80
2023/05/03 08:13:56;;;;;;;2.38;1.33;;;11.60;88.40;;;;;;5091125;28;20185;-82
2023/05/03 08:16:22;;;;;;;2.45;1.25;;;11.90;88.90;;;;;;5081310;28;20051;-80
2023/05/03 08:18:47;;;;;;;3.70;1.25;;;11.90;82.10;;;;;;5059275;28;20365;-80
2023/05/03 08:21:13;;;;;;;7.35;1.38;;;11.70;78.80;;;;;;5109000;28;20039;-80
2023/05/03 08:23:39;;;;;;;2.28;1.30;;;11.80;77.60;;;;;;5075857;28;20123;-78
2023/05/03 08:26:09;;;;;;;1.35;1.23;;;12.10;91.10;;;;;;5078201;27;20633;-78
2023/05/03 08:28:35;;;;;;;3.13;1.13;;;11.60;72.00;;;;;;5089222;28;20526;-78
2023/05/03 08:31:03;;;;;;;3.45;1.23;;;12.00;42.60;;;;;;5108353;28;20067;-78
2023/05/03 08:33:29;;;;;;;2.28;1.30;;;11.90;31.80;;;;;;5089502;28;20046;-75
2023/05/03 08:35:55;;;;;;;3.20;1.42;;;11.90;37.50;;;;;;5061621;28;20040;-74
2023/05/03 08:38:21;;;;;;;2.35;1.45;;;11.90;29.50;;;;;;5063320;28;20515;-74
2023/05/03 08:40:49;;;;;;;2.17;1.55;;;12.00;32.80;;;;;;5107975;28;20119;-76
2023/05/03 08:43:19;;;;;;;3.38;1.55;;;12.20;35.10;;;;;;5095052;28;20039;-80
2023/05/03 08:45:45;;;;;;;2.83;1.63;;;12.10;18.50;;;;;;5091145;28;20036;-76
2023/05/03 08:48:12;;;;;;;4.38;2.10;;;12.20;27.40;;;;;;5090159;28;20792;-76
2023/05/03 08:50:41;;;;;;;5.68;1.90;;;12.10;33.40;;;;;;5088161;28;20193;-79
2023/05/03 08:53:10;;;;;;;2.88;1.20;;;12.00;45.30;;;;;;5089009;28;20140;-76
2023/05/03 08:55:37;;;;;;;2.85;1.35;;;12.20;10.50;;;;;;5091777;28;20080;-80
2023/05/03 08:58:09;;;;;;;1.38;1.20;;;12.30;15.30;;;;;;5090736;28;20047;-77
2023/05/03 09:00:35;;;;;;;3.80;1.30;;;12.10;35.10;;;;;;5070513;28;20042;-76
2023/05/03 09:03:01;;;;;;;2.17;1.30;;;12.40;50.70;;;;;;5073775;28;20039;-79
2023/05/03 09:05:31;;;;;;;2.90;1.35;;;11.90;44.30;;;;;;5084231;28;20557;-82
2023/05/03 09:08:12;;;;;;;3.00;1.20;;;12.20;61.40;;;;;;5091915;28;20108;-77
2023/05/03 09:10:40;;;;;;;1.83;1.30;;;12.40;58.60;;;;;;5089459;28;20124;-76
2023/05/03 09:13:06;;;;;;;2.55;1.30;;;12.20;51.10;;;;;;5073936;28;20674;-75
2023/05/03 09:15:33;;;;;;;2.80;1.23;;;12.40;37.20;;;;;;5091522;28;20035;-78
2023/05/03 09:18:25;;;;;;;2.28;1.50;;;12.50;34.90;;;;;;5079757;28;20440;-75
2023/05/03 09:20:51;;;;;;;1.98;1.20;;;12.30;19.50;;;;;;5077083;28;20608;-76
2023/05/03 09:23:38;;;;;;;2.35;1.52;;;12.40;43.90;;;;;;5083527;28;20048;-75
2023/05/03 09:26:05;;;;;;;4.18;1.52;;;12.80;35.90;;;;;;5061067;28;20716;-78
2023/05/03 09:28:41;;;;;;;3.22;1.70;;;12.60;41.70;;;;;;5082083;28;20483;-77
2023/05/03 09:31:06;;;;;;;3.10;1.30;;;12.90;57.60;;;;;;5098894;28;20428;-76
2023/05/03 09:33:33;;;;;;;3.58;1.20;;;12.80;49.00;;;;;;5108088;28;20105;-79
2023/05/03 09:36:01;;;;;;;2.45;1.48;;;12.10;26.40;;;;;;5109298;28;20482;-77
2023/05/03 09:38:29;;;;;;;5.60;2.40;;;12.40;35.40;;;;;;5067734;28;20043;-78
2023/05/03 09:40:55;;;;;;;6.43;3.42;;;12.60;53.90;;;;;;5087809;28;20035;-78
2023/05/03 09:43:21;;;;;;;3.78;2.25;;;12.40;59.30;;;;;;5092515;28;20044;-78
2023/05/03 09:45:47;;;;;;;3.75;1.80;;;12.80;63.50;;;;;;5070030;28;20036;-75
2023/05/03 09:48:13;;;;;;;5.47;1.73;;;12.80;65.40;;;;;;5056220;28;20089;-76
2023/05/03 09:50:40;;;;;;;2.88;1.92;;;12.80;67.00;;;;;;5069744;28;20040;-79
2023/05/03 09:53:06;;;;;;;2.67;1.60;;;12.50;54.00;;;;;;5071217;28;20039;-78
2023/05/03 09:55:37;;;;;;;3.13;1.30;;;12.00;35.30;;;;;;5108788;28;20035;-77
2023/05/03 09:58:06;;;;;;;4.03;1.50;;;12.00;40.50;;;;;;5089992;28;20032;-76
2023/05/03 10:00:41;;;;;;;3.00;1.20;;;12.30;59.40;;;;;;5070928;28;20054;-78
2023/05/03 10:03:09;;;;;;;3.03;1.33;;;12.30;45.50;;;;;;5087945;28;20051;-76
2023/05/03 10:05:45;;;;;;;5.03;1.27;;;12.30;57.80;;;;;;5091198;28;20403;-78
2023/05/03 10:08:33;;;;;;;4.47;1.70;;;12.30;50.60;;;;;;5073991;28;20060;-78
2023/05/03 10:11:03;;;;;;;2.20;1.10;;;12.30;50.70;;;;;;5067435;27;20043;-75
2023/05/03 10:13:29;;;;;;;2.78;1.38;;;12.70;45.30;;;;;;5070176;28;20044;-78
2023/05/03 10:16:04;;;;;;;7.70;1.70;;;12.70;38.90;;;;;;5106773;28;20047;-74
2023/05/03 10:18:30;;;;;;;;;;;13.00;28.20;;;;;;5086902;28;20161;-77
2023/05/03 10:21:15;;;;;;;2.42;1.30;;;13.00;6.30;;;;;;5090717;28;20009;-77
2023/05/03 10:24:13;;;;;;;3.80;1.50;;;13.20;4.30;;;;;;5121321;27;20530;-76
2023/05/03 10:26:46;;;;;;;4.38;1.40;;;13.20;11.50;;;;;;5084600;28;20058;-74
2023/05/03 10:29:33;;;;;;;3.22;1.30;;;13.40;19.40;;;;;;5085777;28;20044;-75
2023/05/03 10:32:04;;;;;;;3.33;1.42;;;13.10;1.00;;;;;;5093868;28;20036;-78
2023/05/03 10:34:32;;;;;;;3.75;1.50;;;13.00;1.00;;;;;;5105540;28;20043;-80
2023/05/03 10:37:01;;;;;;;4.30;1.48;;;13.60;11.50;;;;;;5073347;28;20105;-77
2023/05/03 10:39:27;;;;;;;1.25;1.15;;;13.30;8.10;;;;;;5069777;28;20147;-75
2023/05/03 10:42:12;;;;;;;4.65;1.50;;;13.20;12.20;;;;;;5070665;28;20048;-75
2023/05/03 10:45:00;;;;;;;4.18;1.38;;;13.60;1.00;;;;;;5071100;28;20054;-77
2023/05/03 10:47:25;;;;;;;2.85;1.40;;;13.80;1.00;;;;;;5069026;28;20063;-78
2023/05/03 10:50:17;;;;;;;2.90;1.30;;;14.00;4.30;;;;;;5071007;28;20078;-77
2023/05/03 10:52:43;;;;;;;3.63;1.27;;;13.70;1.00;;;;;;5073984;28;20040;-76
2023/05/03 10:55:11;;;;;;;2.17;1.20;;;13.60;1.00;;;;;;5089834;28;20057;-79
2023/05/03 10:57:40;;;;;;;3.10;1.55;;;13.80;1.00;;;;;;5090480;28;20047;-80
2023/05/03 11:00:11;;;;;;;1.73;1.35;;;13.80;1.00;;;;;;5086959;28;20065;-78
2023/05/03 11:02:43;;;;;;;2.60;1.50;;;13.30;1.00;;;;;;5089601;28;20047;-78
2023/05/03 11:05:12;;;;;;;2.60;1.88;;;13.10;1.00;;;;;;5089199;28;20130;-77
2023/05/03 11:07:37;;;;;;;3.13;1.38;;;13.20;1.00;;;;;;5090951;28;20118;-77
2023/05/03 11:10:17;;;;;;;1.90;1.50;;;13.60;1.00;;;;;;5106257;28;20120;-78
2023/05/03 11:12:42;;;;;;;2.95;1.40;;;13.10;1.00;;;;;;5109698;28;20120;-80
2023/05/03 11:15:10;;;;;;;3.28;1.60;;;13.40;1.00;;;;;;5079785;28;20653;-78
2023/05/03 11:17:37;;;;;;;4.10;1.80;;;13.60;1.00;;;;;;5106742;28;20044;-80
2023/05/03 11:20:09;;;;;;;2.95;1.67;;;13.80;1.00;;;;;;5128580;27;20395;-75
2023/05/03 11:22:36;;;;;;;4.25;1.55;;;13.60;1.00;;;;;;5049723;28;20044;-76
2023/05/03 11:25:02;;;;;;;2.17;1.40;;;13.90;1.00;;;;;;5059361;28;20042;-75
2023/05/03 11:27:28;;;;;;;4.72;1.52;;;13.60;1.00;;;;;;5043226;28;20036;-76
2023/05/03 11:29:57;;;;;;;2.25;1.40;;;14.20;1.00;;;;;;5076774;28;20498;-81
2023/05/03 11:32:26;;;;;;;4.40;2.20;;;13.70;1.00;;;;;;5109335;28;20109;-78
2023/05/03 11:34:52;;;;;;;3.33;1.50;;;14.20;1.00;;;;;;5093251;28;20047;-78
2023/05/03 11:37:17;;;;;;;3.38;1.67;;;14.70;1.00;;;;;;5089901;28;20036;-75
2023/05/03 11:39:43;;;;;;;3.15;1.60;;;14.70;1.00;;;;;;5090008;28;20068;-80
2023/05/03 11:42:09;;;;;;;3.53;1.63;;;14.90;1.00;;;;;;5056389;28;20040;-76
2023/05/03 11:44:36;;;;;;;3.53;1.70;;;13.90;1.00;;;;;;5097231;28;20036;-78
2023/05/03 11:47:03;;;;;;;2.97;1.40;;;14.40;1.00;;;;;;5097954;28;20040;-78
2023/05/03 11:49:28;;;;;;;1.65;1.30;;;14.60;1.00;;;;;;5091159;28;20102;-80
2023/05/03 11:51:55;;;;;;;4.38;2.10;;;14.60;1.00;;;;;;5092788;28;20035;-80
2023/05/03 11:54:22;;;;;;;3.58;1.48;;;14.20;1.00;;;;;;5075238;28;20032;-76
2023/05/03 11:56:48;;;;;;;2.95;1.90;;;14.30;1.00;;;;;;5076410;28;20047;-81
2023/05/03 11:59:14;;;;;;;3.42;2.10;;;14.00;1.00;;;;;;5066782;28;20487;-74
2023/05/03 12:01:41;;;;;;;10.52;8.55;;;13.70;1.00;;;;;;5085843;28;20032;-76
2023/05/03 12:04:07;;;;;;;4.97;3.50;;;13.80;1.00;;;;;;5092151;28;20058;-78
2023/05/03 12:06:33;;;;;;;3.85;1.95;;;13.50;1.00;;;;;;5056399;28;20453;-78
2023/05/03 12:09:03;;;;;;;3.17;1.67;;;13.60;1.00;;;;;;5068129;28;20070;-77
2023/05/03 12:11:38;;;;;;;4.05;1.98;;;13.60;1.00;;;;;;5108104;28;20078;-76
2023/05/03 12:14:04;;;;;;;3.25;2.10;;;13.70;2.40;;;;;;5093316;28;20562;-79
2023/05/03 12:16:46;;;;;;;4.97;2.03;;;13.60;1.00;;;;;;5106554;28;20036;-79
2023/05/03 12:19:11;;;;;;;2.63;2.03;;;13.20;1.00;;;;;;5090377;28;20096;-77
2023/05/03 12:21:47;;;;;;;3.53;2.03;;;13.70;1.00;;;;;;5091120;28;20032;-76
2023/05/03 12:24:18;;;;;;;3.60;1.70;;;13.80;4.90;;;;;;5075555;28;20066;-77
2023/05/03 12:26:47;;;;;;;2.65;1.67;;;13.80;3.70;;;;;;5054320;28;20655;-77
2023/05/03 12:29:13;;;;;;;1.52;1.42;;;13.80;3.10;;;;;;5071077;28;20032;-78
2023/05/03 12:31:43;;;;;;;3.75;1.60;;;13.50;1.00;;;;;;5074843;28;20035;-78
2023/05/03 12:34:08;;;;;;;4.32;1.60;;;13.70;2.80;;;;;;5091664;28;20048;-77
2023/05/03 12:36:34;;;;;;;3.58;1.80;;;13.90;1.00;;;;;;5075582;28;20043;-78
2023/05/03 12:39:01;;;;;;;2.10;1.50;;;14.20;1.00;;;;;;5054949;28;20085;-74
2023/05/03 12:41:30;;;;;;;3.17;1.60;;;14.20;1.00;;;;;;5089990;28;20685;-77
2023/05/03 12:43:57;;;;;;;4.00;1.67;;;14.00;1.00;;;;;;5074995;28;20863;-75
2023/05/03 12:46:23;;;;;;;2.65;1.67;;;13.90;1.00;;;;;;5073957;28;20519;-78
2023/05/03 12:48:49;;;;;;;4.32;1.83;;;13.80;1.00;;;;;;5074919;28;20036;-79
2023/05/03 12:51:15;;;;;;;5.60;1.88;;;14.00;1.00;;;;;;5088575;28;20035;-81
2023/05/03 12:53:45;;;;;;;3.75;1.38;;;15.00;1.00;;;;;;5057224;28;20088;-79
2023/05/03 12:56:11;;;;;;;2.15;1.50;;;14.80;1.00;;;;;;5091235;28;20114;-76
2023/05/03 12:58:37;;;;;;;6.53;1.67;;;14.50;1.00;;;;;;5073513;28;20040;-77